Time;durP1;ratioP1;P1;durP2;ratioP2;P2;SDS_P1;SDS_P2;PMS_P1;PMS_P2;Temp;Humidity;BMP_temperature;BMP_pressure;BME280_temperature;BME280_humidity;BME280_pressure;Samples;Min_cycle;Max_cycle;Signal;HPM_P1;HPM_P2
2024/04/14 00:01:09;;;;;;;4.93;3.70;;;18.10;1.00;;;;;;5339989;26;20490;-71
2024/04/14 00:03:35;;;;;;;4.33;3.37;;;18.10;1.00;;;;;;5304798;26;20585;-71
2024/04/14 00:06:04;;;;;;;3.80;3.50;;;18.00;1.00;;;;;;5316587;26;20600;-73
2024/04/14 00:08:30;;;;;;;3.43;3.13;;;18.10;1.00;;;;;;5337994;26;20658;-71
2024/04/14 00:10:59;;;;;;;5.60;4.43;;;18.00;1.00;;;;;;5324356;26;20500;-70
2024/04/14 00:13:28;;;;;;;4.10;3.70;;;18.10;1.00;;;;;;5337330;26;20616;-70
2024/04/14 00:16:03;;;;;;;3.40;3.00;;;18.10;1.00;;;;;;5333653;26;20937;-71
2024/04/14 00:18:29;;;;;;;5.30;3.33;;;18.00;1.00;;;;;;5333236;26;20560;-70
2024/04/14 00:20:57;;;;;;;3.20;2.90;;;18.00;1.00;;;;;;5342883;26;20562;-71
2024/04/14 00:23:23;;;;;;;3.40;3.10;;;18.00;1.00;;;;;;5346624;26;20488;-70
2024/04/14 00:25:52;;;;;;;3.13;2.93;;;18.00;1.00;;;;;;5334481;26;21008;-72
2024/04/14 00:28:18;;;;;;;5.10;3.20;;;18.00;1.00;;;;;;5335763;26;20546;-71
2024/04/14 00:30:49;;;;;;;3.13;2.93;;;18.00;1.00;;;;;;5319932;26;20503;-72
2024/04/14 00:33:15;;;;;;;3.17;2.87;;;18.10;1.00;;;;;;5298144;26;20588;-70
2024/04/14 00:35:44;;;;;;;3.17;2.87;;;18.00;1.00;;;;;;5301672;26;20545;-71
2024/04/14 00:38:10;;;;;;;3.40;3.10;;;18.00;1.00;;;;;;5300159;26;20494;-73
2024/04/14 00:40:38;;;;;;;3.40;3.10;;;18.10;1.00;;;;;;5305411;26;20516;-73
2024/04/14 00:43:04;;;;;;;3.90;3.60;;;18.10;1.00;;;;;;5297086;26;20553;-74
2024/04/14 00:45:33;;;;;;;4.13;3.77;;;18.10;1.00;;;;;;5306862;26;20531;-73
2024/04/14 00:48:03;;;;;;;4.23;3.53;;;18.00;1.00;;;;;;5302282;26;20487;-75
2024/04/14 00:50:32;;;;;;;4.53;3.87;;;18.00;1.00;;;;;;5302250;26;20506;-74
2024/04/14 00:52:58;;;;;;;3.80;3.50;;;18.00;1.00;;;;;;5305805;26;20945;-73
2024/04/14 00:55:27;;;;;;;3.87;3.57;;;18.10;1.00;;;;;;5305699;26;20534;-72
2024/04/14 00:57:53;;;;;;;4.53;3.70;;;18.10;1.00;;;;;;5311715;26;20498;-72
2024/04/14 01:00:23;;;;;;;3.73;3.13;;;18.00;1.00;;;;;;5312594;26;20502;-73
2024/04/14 01:02:53;;;;;;;3.57;3.07;;;18.00;1.00;;;;;;5302879;26;20556;-73
2024/04/14 01:05:25;;;;;;;5.77;3.53;;;18.00;1.00;;;;;;5304911;26;21070;-73
2024/04/14 01:07:52;;;;;;;4.97;3.10;;;18.00;1.00;;;;;;5312287;26;20492;-74
2024/04/14 01:10:21;;;;;;;4.03;3.07;;;18.00;1.00;;;;;;5302285;26;20519;-72
2024/04/14 01:12:47;;;;;;;3.40;3.00;;;18.00;1.00;;;;;;5303529;26;20483;-72
2024/04/14 01:15:16;;;;;;;6.40;3.77;;;18.00;1.00;;;;;;5302627;26;20551;-73
2024/04/14 01:17:43;;;;;;;3.00;2.70;;;18.00;1.00;;;;;;5310777;26;20545;-73
2024/04/14 01:20:12;;;;;;;3.30;3.00;;;18.00;1.00;;;;;;5295643;26;21015;-73
2024/04/14 01:22:41;;;;;;;5.40;2.80;;;18.00;1.00;;;;;;5298669;26;21079;-72
2024/04/14 01:25:13;;;;;;;3.50;2.90;;;18.00;1.00;;;;;;5305705;26;20506;-72
2024/04/14 01:27:40;;;;;;;3.33;2.60;;;18.00;1.00;;;;;;5304701;26;20665;-73
2024/04/14 01:30:09;;;;;;;3.07;2.87;;;18.00;1.00;;;;;;5310296;26;20545;-74
2024/04/14 01:32:37;;;;;;;5.07;3.60;;;17.90;1.00;;;;;;5311861;26;20584;-73
2024/04/14 01:35:07;;;;;;;3.57;3.23;;;17.90;1.00;;;;;;5303890;26;20495;-73
2024/04/14 01:37:33;;;;;;;3.77;3.47;;;17.90;1.00;;;;;;5305535;26;20540;-72
2024/04/14 01:40:01;;;;;;;4.43;3.67;;;17.90;1.00;;;;;;5335168;26;20613;-72
2024/04/14 01:42:30;;;;;;;4.10;3.00;;;17.90;1.00;;;;;;5342409;26;20473;-74
2024/04/14 01:44:59;;;;;;;3.17;2.97;;;17.90;1.00;;;;;;5347153;26;20573;-73
2024/04/14 01:47:25;;;;;;;5.40;3.37;;;17.80;1.00;;;;;;5339038;26;20501;-73
2024/04/14 01:49:53;;;;;;;3.30;3.00;;;17.80;1.00;;;;;;5343427;26;20840;-73
2024/04/14 01:52:19;;;;;;;3.90;3.43;;;17.90;1.00;;;;;;5339744;26;20541;-73
2024/04/14 01:54:48;;;;;;;5.10;3.30;;;17.90;1.00;;;;;;5340858;26;21073;-73
2024/04/14 01:57:14;;;;;;;4.50;3.20;;;17.90;1.00;;;;;;5311175;26;20517;-73
2024/04/14 01:59:45;;;;;;;4.63;3.63;;;17.90;1.00;;;;;;5302812;26;20490;-73
2024/04/14 02:02:11;;;;;;;4.07;3.47;;;17.80;1.00;;;;;;5334925;26;20484;-73
2024/04/14 02:04:40;;;;;;;3.37;3.13;;;17.80;1.00;;;;;;5344472;26;20497;-73
2024/04/14 02:07:06;;;;;;;3.30;3.00;;;17.80;1.00;;;;;;5337644;26;20533;-73
2024/04/14 02:09:35;;;;;;;4.70;3.17;;;17.80;1.00;;;;;;5333051;26;20617;-74
2024/04/14 02:12:01;;;;;;;3.57;3.27;;;17.80;1.00;;;;;;5321522;26;20499;-73
2024/04/14 02:14:29;;;;;;;3.57;3.27;;;17.70;1.00;;;;;;5343045;26;20490;-73
2024/04/14 02:16:58;;;;;;;4.60;3.30;;;17.70;1.00;;;;;;5334407;26;21089;-73
2024/04/14 02:19:27;;;;;;;3.80;3.50;;;17.70;1.00;;;;;;5341889;26;20995;-73
2024/04/14 02:21:53;;;;;;;3.50;3.20;;;17.60;1.00;;;;;;5337467;26;20494;-73
2024/04/14 02:24:22;;;;;;;6.47;3.87;;;17.70;1.00;;;;;;5341634;26;20944;-73
2024/04/14 02:26:48;;;;;;;3.40;3.10;;;17.70;1.00;;;;;;5341116;26;20904;-73
2024/04/14 02:29:17;;;;;;;3.23;2.90;;;17.60;1.00;;;;;;5341975;26;20554;-72
2024/04/14 02:31:43;;;;;;;5.00;4.13;;;17.60;1.00;;;;;;5334518;26;20551;-73
2024/04/14 02:34:14;;;;;;;4.20;3.80;;;17.60;1.00;;;;;;5332958;26;21023;-72
2024/04/14 02:36:40;;;;;;;5.00;3.30;;;17.50;1.00;;;;;;5320260;26;20971;-73
2024/04/14 02:39:08;;;;;;;3.50;3.20;;;17.50;1.00;;;;;;5301550;26;20510;-73
2024/04/14 02:41:35;;;;;;;3.67;3.10;;;17.50;1.00;;;;;;5303794;26;21345;-72
2024/04/14 02:44:04;;;;;;;4.87;3.60;;;17.50;1.00;;;;;;5309421;26;20490;-72
2024/04/14 02:46:31;;;;;;;4.40;3.30;;;17.50;1.00;;;;;;5342849;26;20502;-73
2024/04/14 02:48:59;;;;;;;3.43;3.13;;;17.70;1.00;;;;;;5338745;26;20608;-72
2024/04/14 02:51:28;;;;;;;3.83;3.27;;;17.80;1.00;;;;;;5331013;26;20963;-73
2024/04/14 02:53:57;;;;;;;3.43;3.13;;;17.80;1.00;;;;;;5336917;26;20523;-74
2024/04/14 02:56:23;;;;;;;3.33;3.03;;;17.80;1.00;;;;;;5335450;26;20492;-73
2024/04/14 02:58:51;;;;;;;3.80;3.50;;;17.80;1.00;;;;;;5340982;26;20495;-72
2024/04/14 03:01:18;;;;;;;4.77;3.83;;;17.90;1.00;;;;;;5325407;26;22878;-71
2024/04/14 03:03:48;;;;;;;3.80;3.40;;;17.90;1.00;;;;;;5338434;26;20529;-71
2024/04/14 03:06:14;;;;;;;4.00;3.60;;;18.00;1.00;;;;;;5323791;26;20593;-72
2024/04/14 03:08:45;;;;;;;3.90;3.10;;;18.00;1.00;;;;;;5303660;26;20612;-72
2024/04/14 03:11:12;;;;;;;6.50;3.50;;;18.00;1.00;;;;;;5304363;26;20889;-71
2024/04/14 03:13:41;;;;;;;3.43;3.23;;;18.00;1.00;;;;;;5318600;26;20485;-71
2024/04/14 03:16:07;;;;;;;3.93;3.57;;;18.00;1.00;;;;;;5318970;26;21108;-71
2024/04/14 03:18:36;;;;;;;4.00;3.60;;;17.90;1.00;;;;;;5312218;26;20910;-71
2024/04/14 03:21:02;;;;;;;4.07;3.77;;;17.90;1.00;;;;;;5308103;26;20477;-71
2024/04/14 03:23:32;;;;;;;5.00;3.70;;;17.90;1.00;;;;;;5308076;26;21029;-73
2024/04/14 03:26:01;;;;;;;4.10;3.63;;;17.90;1.00;;;;;;5309029;26;20535;-71
2024/04/14 03:28:30;;;;;;;6.30;3.90;;;17.90;1.00;;;;;;5333339;26;20670;-71
2024/04/14 03:31:00;;;;;;;4.33;3.60;;;17.90;1.00;;;;;;5342383;26;20535;-71
2024/04/14 03:33:29;;;;;;;4.27;3.97;;;18.00;1.00;;;;;;5322272;26;20484;-71
2024/04/14 03:36:00;;;;;;;4.40;3.67;;;18.00;1.00;;;;;;5332021;26;20538;-72
2024/04/14 03:38:29;;;;;;;4.40;4.00;;;18.00;1.00;;;;;;5302508;26;22699;-70
2024/04/14 03:40:57;;;;;;;4.80;4.10;;;18.00;1.00;;;;;;5298033;26;20998;-70
2024/04/14 03:43:29;;;;;;;5.00;4.60;;;18.00;1.00;;;;;;5344418;26;20978;-70
2024/04/14 03:45:57;;;;;;;4.43;4.03;;;18.00;1.00;;;;;;5311807;26;21526;-70
2024/04/14 03:48:26;;;;;;;4.83;3.70;;;18.00;1.00;;;;;;5329280;26;20486;-72
2024/04/14 03:50:54;;;;;;;4.87;4.47;;;18.10;1.00;;;;;;5340994;26;20488;-70
2024/04/14 03:53:20;;;;;;;5.00;4.30;;;18.10;1.00;;;;;;5301189;26;20486;-71
2024/04/14 03:55:50;;;;;;;7.80;5.10;;;18.00;1.00;;;;;;5308619;26;20590;-72
2024/04/14 03:58:16;;;;;;;5.57;4.50;;;18.00;1.00;;;;;;5299926;26;20561;-71
2024/04/14 04:00:48;;;;;;;6.30;4.03;;;18.00;1.00;;;;;;5301779;26;20538;-70
2024/04/14 04:03:13;;;;;;;5.20;4.80;;;18.00;1.00;;;;;;5304377;26;21002;-70
2024/04/14 04:05:42;;;;;;;6.70;4.73;;;18.00;1.00;;;;;;5326009;26;20539;-70
2024/04/14 04:08:08;;;;;;;4.90;4.50;;;18.00;1.00;;;;;;5338916;26;20492;-73
2024/04/14 04:10:37;;;;;;;5.70;4.93;;;18.00;1.00;;;;;;5332915;26;20590;-70
2024/04/14 04:13:03;;;;;;;5.50;4.17;;;18.00;1.00;;;;;;5344300;25;20528;-70
2024/04/14 04:15:32;;;;;;;6.63;4.80;;;17.90;1.00;;;;;;5335136;26;20520;-70
2024/04/14 04:18:00;;;;;;;5.00;4.60;;;17.90;1.00;;;;;;5346673;26;20585;-70
2024/04/14 04:20:29;;;;;;;6.37;5.07;;;17.90;1.00;;;;;;5336653;26;20484;-70
2024/04/14 04:22:55;;;;;;;5.47;5.00;;;17.90;1.00;;;;;;5302570;26;20488;-70
2024/04/14 04:25:24;;;;;;;5.40;4.90;;;17.90;1.00;;;;;;5306529;26;20547;-70
2024/04/14 04:27:50;;;;;;;5.03;4.40;;;17.80;1.00;;;;;;5328383;26;20566;-70
2024/04/14 04:30:19;;;;;;;5.20;4.70;;;17.80;1.00;;;;;;5304890;26;20535;-70
2024/04/14 04:32:44;;;;;;;5.70;4.83;;;17.80;1.00;;;;;;5335365;26;20491;-71
2024/04/14 04:35:16;;;;;;;8.07;5.17;;;17.90;1.00;;;;;;5323123;26;20536;-71
2024/04/14 04:37:42;;;;;;;8.20;4.93;;;17.80;1.00;;;;;;5307028;26;21473;-71
2024/04/14 04:40:11;;;;;;;7.37;5.20;;;17.80;1.00;;;;;;5303257;26;20499;-71
2024/04/14 04:42:37;;;;;;;6.60;5.03;;;17.80;1.00;;;;;;5303415;26;20493;-73
2024/04/14 04:45:07;;;;;;;4.80;4.40;;;17.70;1.00;;;;;;5303238;26;21388;-70
2024/04/14 04:47:33;;;;;;;9.83;5.43;;;17.70;1.00;;;;;;5308803;26;20472;-71
2024/04/14 04:50:02;;;;;;;6.10;5.50;;;17.70;1.00;;;;;;5335452;26;20692;-71
2024/04/14 04:52:30;;;;;;;5.87;5.30;;;17.70;1.00;;;;;;5308097;26;20497;-71
2024/04/14 04:54:59;;;;;;;6.07;5.47;;;17.70;1.00;;;;;;5311500;26;21021;-71
2024/04/14 04:57:25;;;;;;;5.03;4.63;;;17.60;1.00;;;;;;5335831;25;20496;-72
2024/04/14 04:59:54;;;;;;;5.67;4.37;;;17.50;1.00;;;;;;5334284;26;20639;-70
2024/04/14 05:02:20;;;;;;;5.50;4.13;;;17.40;1.00;;;;;;5313732;26;20942;-71
2024/04/14 05:04:49;;;;;;;5.00;4.20;;;17.40;1.00;;;;;;5306892;26;20556;-70
2024/04/14 05:07:16;;;;;;;5.17;4.00;;;17.30;1.00;;;;;;5300980;26;22004;-71
2024/04/14 05:09:47;;;;;;;4.40;3.93;;;17.30;1.00;;;;;;5312431;26;20494;-71
2024/04/14 05:12:13;;;;;;;4.20;3.80;;;17.30;1.00;;;;;;5310837;26;20539;-72
2024/04/14 05:14:42;;;;;;;4.10;3.70;;;17.30;1.00;;;;;;5316062;26;20490;-70
2024/04/14 05:17:08;;;;;;;3.73;3.33;;;17.40;1.00;;;;;;5332131;26;20698;-71
2024/04/14 05:19:36;;;;;;;6.63;3.77;;;17.30;1.00;;;;;;5340988;26;20563;-72
2024/04/14 05:22:03;;;;;;;5.50;3.50;;;17.30;1.00;;;;;;5321082;26;20494;-73
2024/04/14 05:24:31;;;;;;;8.20;4.00;;;17.20;1.00;;;;;;5342062;26;20521;-73
2024/04/14 05:27:00;;;;;;;4.63;3.10;;;17.20;1.00;;;;;;5329768;26;20471;-72
2024/04/14 05:29:29;;;;;;;5.00;3.63;;;17.20;1.00;;;;;;5347963;26;20467;-74
2024/04/14 05:31:55;;;;;;;7.40;3.40;;;17.30;1.00;;;;;;5341642;26;20605;-72
2024/04/14 05:34:23;;;;;;;7.10;6.40;;;17.20;1.00;;;;;;5331745;26;20851;-72
2024/04/14 05:36:49;;;;;;;4.40;3.00;;;17.20;1.00;;;;;;5333120;26;20501;-73
2024/04/14 05:39:18;;;;;;;4.40;3.37;;;17.20;1.00;;;;;;5334512;26;20690;-73
2024/04/14 05:41:44;;;;;;;4.40;3.33;;;17.10;1.00;;;;;;5322642;26;21412;-73
2024/04/14 05:44:15;;;;;;;12.03;3.73;;;17.10;1.00;;;;;;5337433;26;20532;-73
2024/04/14 05:46:41;;;;;;;4.70;3.13;;;17.10;1.00;;;;;;5306474;26;20498;-74
2024/04/14 05:49:09;;;;;;;4.73;3.00;;;17.10;1.00;;;;;;5297958;26;20482;-73
2024/04/14 05:51:35;;;;;;;3.70;3.03;;;17.10;1.00;;;;;;5298621;26;20584;-73
2024/04/14 05:54:04;;;;;;;3.23;2.93;;;17.10;1.00;;;;;;5312721;26;20490;-72
2024/04/14 05:56:30;;;;;;;4.90;3.57;;;17.20;1.00;;;;;;5323583;26;20542;-72
2024/04/14 05:58:59;;;;;;;5.57;3.40;;;17.10;1.00;;;;;;5312781;26;20533;-72
2024/04/14 06:01:27;;;;;;;6.23;2.63;;;17.20;1.00;;;;;;5303766;26;20580;-73
2024/04/14 06:03:56;;;;;;;3.40;2.37;;;17.30;1.00;;;;;;5311701;26;21147;-73
2024/04/14 06:06:22;;;;;;;7.50;2.97;;;17.30;1.00;;;;;;5294755;26;20502;-74
2024/04/14 06:08:52;;;;;;;4.80;3.50;;;17.30;1.00;;;;;;5298293;26;21947;-72
2024/04/14 06:11:19;;;;;;;3.60;3.00;;;17.20;1.00;;;;;;5300398;26;20622;-73
2024/04/14 06:13:48;;;;;;;3.93;3.10;;;17.10;1.00;;;;;;5340715;26;20996;-72
2024/04/14 06:16:14;;;;;;;4.00;3.10;;;17.20;1.00;;;;;;5338116;26;20984;-72
2024/04/14 06:18:45;;;;;;;5.20;2.70;;;17.20;1.00;;;;;;5339549;26;20491;-73
2024/04/14 06:21:11;;;;;;;5.33;2.90;;;17.30;1.00;;;;;;5330200;26;20471;-73
2024/04/14 06:23:40;;;;;;;5.10;2.77;;;17.50;1.00;;;;;;5323547;26;20629;-73
2024/04/14 06:26:07;;;;;;;4.40;3.00;;;17.50;1.00;;;;;;5330412;26;20476;-73
2024/04/14 06:28:37;;;;;;;4.80;2.80;;;17.60;1.00;;;;;;5323114;26;20516;-73
2024/04/14 06:31:03;;;;;;;4.10;3.17;;;17.60;1.00;;;;;;5300560;26;23270;-71
2024/04/14 06:33:32;;;;;;;3.80;2.80;;;17.70;1.00;;;;;;5299288;26;20922;-71
2024/04/14 06:36:00;;;;;;;4.27;3.20;;;17.80;1.00;;;;;;5315470;26;20483;-71
2024/04/14 06:38:30;;;;;;;4.23;3.30;;;17.70;1.00;;;;;;5328573;26;20608;-71
2024/04/14 06:40:55;;;;;;;6.50;3.30;;;17.60;1.00;;;;;;5300669;26;21101;-72
2024/04/14 06:43:24;;;;;;;4.30;2.53;;;17.70;1.00;;;;;;5321875;26;20645;-70
2024/04/14 06:45:53;;;;;;;4.17;3.30;;;17.80;1.00;;;;;;5333112;26;20285;-72
2024/04/14 06:48:26;;;;;;;4.80;3.60;;;17.80;1.00;;;;;;5306494;26;20527;-72
2024/04/14 06:50:51;;;;;;;4.77;3.83;;;17.60;1.00;;;;;;5318338;26;20507;-71
2024/04/14 06:53:23;;;;;;;6.83;3.57;;;17.60;1.00;;;;;;5334294;26;20882;-72
2024/04/14 06:55:50;;;;;;;5.10;2.97;;;17.60;1.00;;;;;;5337639;26;20261;-74
2024/04/14 06:58:19;;;;;;;7.20;2.83;;;17.60;1.00;;;;;;5328471;26;21023;-73
2024/04/14 07:00:45;;;;;;;4.77;3.63;;;17.60;1.00;;;;;;5332258;26;20496;-75
2024/04/14 07:03:14;;;;;;;4.90;3.00;;;17.50;1.00;;;;;;5327376;26;21150;-71
2024/04/14 07:05:40;;;;;;;6.23;3.10;;;17.60;1.00;;;;;;5300824;26;20551;-72
2024/04/14 07:08:11;;;;;;;5.23;3.73;;;17.80;1.00;;;;;;5337161;26;20916;-71
2024/04/14 07:10:39;;;;;;;6.27;3.20;;;17.90;1.00;;;;;;5340887;26;20632;-74
2024/04/14 07:13:08;;;;;;;4.10;3.70;;;17.90;1.00;;;;;;5337825;26;20508;-73
2024/04/14 07:15:34;;;;;;;3.70;3.20;;;17.90;1.00;;;;;;5332752;26;20535;-72
2024/04/14 07:18:03;;;;;;;4.70;2.90;;;17.70;1.00;;;;;;5309535;26;20492;-72
2024/04/14 07:20:29;;;;;;;3.83;3.10;;;17.50;1.00;;;;;;5297847;26;21116;-72
2024/04/14 07:22:58;;;;;;;4.80;3.17;;;17.50;1.00;;;;;;5302017;26;20621;-72
2024/04/14 07:25:24;;;;;;;4.43;3.23;;;17.50;1.00;;;;;;5306863;26;21000;-72
2024/04/14 07:27:55;;;;;;;3.60;2.93;;;17.50;1.00;;;;;;5300613;26;20629;-71
2024/04/14 07:30:21;;;;;;;3.30;3.00;;;17.50;1.00;;;;;;5301272;26;20505;-71
2024/04/14 07:32:51;;;;;;;4.90;3.23;;;17.60;1.00;;;;;;5307289;26;20548;-71
2024/04/14 07:35:17;;;;;;;6.70;2.80;;;17.70;1.00;;;;;;5306915;26;21700;-72
2024/04/14 07:37:49;;;;;;;6.20;3.30;;;17.90;1.00;;;;;;5306724;26;20656;-73
2024/04/14 07:40:15;;;;;;;4.97;2.60;;;18.10;1.00;;;;;;5309186;26;21020;-74
2024/04/14 07:42:43;;;;;;;3.13;2.83;;;18.10;1.00;;;;;;5318443;26;21051;-74
2024/04/14 07:45:14;;;;;;;6.37;2.43;;;18.20;1.00;;;;;;5308638;26;20495;-73
2024/04/14 07:47:46;;;;;;;3.83;2.20;;;18.40;1.00;;;;;;5318631;26;20491;-74
2024/04/14 07:50:12;;;;;;;4.73;2.47;;;18.50;1.00;;;;;;5312926;26;20503;-72
2024/04/14 07:52:41;;;;;;;3.93;2.50;;;18.50;1.00;;;;;;5307850;26;20483;-73
2024/04/14 07:55:07;;;;;;;3.90;2.37;;;18.60;1.00;;;;;;5307915;26;20471;-73
2024/04/14 07:57:38;;;;;;;3.20;2.20;;;18.70;1.00;;;;;;5311828;26;20511;-77
2024/04/14 08:00:05;;;;;;;4.50;2.20;;;18.70;1.00;;;;;;5304291;26;20615;-73
2024/04/14 08:02:36;;;;;;;2.80;2.17;;;18.80;1.00;;;;;;5304623;26;20532;-74
2024/04/14 08:05:03;;;;;;;5.33;2.50;;;18.90;1.00;;;;;;5300868;26;20540;-73
2024/04/14 08:07:32;;;;;;;8.13;2.90;;;19.10;1.00;;;;;;5323627;26;20491;-75
2024/04/14 08:09:58;;;;;;;4.33;2.13;;;19.20;1.00;;;;;;5344117;26;20485;-75
2024/04/14 08:12:27;;;;;;;3.93;1.93;;;19.30;1.00;;;;;;5342891;26;20487;-75
2024/04/14 08:14:54;;;;;;;2.20;2.00;;;19.20;1.00;;;;;;5334324;26;20468;-74
2024/04/14 08:17:23;;;;;;;4.57;1.90;;;19.20;1.00;;;;;;5345718;26;20707;-73
2024/04/14 08:19:52;;;;;;;4.30;2.70;;;19.10;1.00;;;;;;5344226;26;20534;-73
2024/04/14 08:22:21;;;;;;;3.10;1.80;;;19.10;1.00;;;;;;5305561;26;21087;-73
2024/04/14 08:24:47;;;;;;;4.33;2.53;;;19.40;1.00;;;;;;5311599;26;21053;-73
2024/04/14 08:27:15;;;;;;;6.50;2.70;;;19.40;1.00;;;;;;5338261;26;20483;-73
2024/04/14 08:29:42;;;;;;;5.43;2.60;;;19.20;1.00;;;;;;5343703;26;20491;-73
2024/04/14 08:32:11;;;;;;;4.20;2.43;;;19.00;1.00;;;;;;5349575;26;20600;-74
2024/04/14 08:34:37;;;;;;;7.13;2.00;;;18.70;1.00;;;;;;5353119;26;21845;-76
2024/04/14 08:37:08;;;;;;;2.67;2.40;;;18.20;1.00;;;;;;5346600;26;20561;-74
2024/04/14 08:39:36;;;;;;;3.97;1.73;;;17.80;1.00;;;;;;5332582;26;20488;-72
2024/04/14 08:42:07;;;;;;;7.10;2.27;;;17.60;1.00;;;;;;5343579;26;21052;-72
2024/04/14 08:44:35;;;;;;;2.00;1.73;;;17.60;1.00;;;;;;5341280;26;20491;-74
2024/04/14 08:47:06;;;;;;;3.37;1.60;;;17.60;1.00;;;;;;5344610;25;20496;-75
2024/04/14 08:49:32;;;;;;;2.73;1.80;;;17.80;1.00;;;;;;5347276;25;20464;-75
2024/04/14 08:52:03;;;;;;;3.60;1.67;;;18.00;1.00;;;;;;5338487;25;20492;-73
2024/04/14 08:54:32;;;;;;;2.30;1.53;;;18.10;1.00;;;;;;5341718;26;20488;-73
2024/04/14 08:57:04;;;;;;;2.73;1.70;;;18.20;1.00;;;;;;5341349;26;21467;-71
2024/04/14 08:59:30;;;;;;;2.87;1.17;;;18.50;1.00;;;;;;5340740;26;20638;-73
2024/04/14 09:02:00;;;;;;;4.27;1.30;;;18.60;1.00;;;;;;5338754;26;21083;-71
2024/04/14 09:04:27;;;;;;;3.37;1.17;;;18.70;1.00;;;;;;5341672;26;20493;-72
2024/04/14 09:06:56;;;;;;;4.63;1.53;;;18.90;1.00;;;;;;5339992;26;20570;-71
2024/04/14 09:09:22;;;;;;;4.70;0.90;;;18.90;1.00;;;;;;5338204;26;20560;-70
2024/04/14 09:11:58;;;;;;;2.50;0.83;;;18.70;1.00;;;;;;5337018;26;20489;-70
2024/04/14 09:14:25;;;;;;;4.23;1.33;;;18.70;1.00;;;;;;5315400;26;20557;-72
2024/04/14 09:16:54;;;;;;;5.10;1.20;;;18.90;1.00;;;;;;5297478;26;20561;-72
2024/04/14 09:19:21;;;;;;;2.13;1.20;;;19.00;1.00;;;;;;5302219;26;21047;-72
2024/04/14 09:21:53;;;;;;;2.20;1.37;;;19.20;1.00;;;;;;5307911;26;20507;-72
2024/04/14 09:24:19;;;;;;;3.47;1.00;;;19.30;1.00;;;;;;5305907;26;20535;-72
2024/04/14 09:26:47;;;;;;;4.80;1.40;;;19.30;1.00;;;;;;5328773;26;20489;-73
2024/04/14 09:29:16;;;;;;;1.57;0.90;;;19.00;1.00;;;;;;5342181;26;20488;-75
2024/04/14 09:31:50;;;;;;;2.70;1.47;;;18.80;1.00;;;;;;5343812;26;20500;-73
2024/04/14 09:34:20;;;;;;;2.60;1.50;;;18.80;1.00;;;;;;5329779;26;20507;-72
2024/04/14 09:37:03;;;;;;;3.20;1.17;;;19.10;1.00;;;;;;5308833;26;20491;-73
2024/04/14 09:40:09;;;;;;;2.30;1.20;;;19.40;1.00;;;;;;5336757;26;21321;-74
2024/04/14 09:42:35;;;;;;;5.67;1.27;;;19.70;1.00;;;;;;5304811;26;20618;-72
2024/04/14 09:45:44;;;;;;;4.03;1.13;;;19.70;1.00;;;;;;5307696;26;21304;-73
2024/04/14 09:48:13;;;;;;;3.27;1.40;;;20.00;1.00;;;;;;5303077;26;20502;-72
2024/04/14 09:50:44;;;;;;;3.70;1.43;;;19.80;1.00;;;;;;5327977;26;20476;-72
2024/04/14 09:53:15;;;;;;;2.93;1.53;;;19.40;1.00;;;;;;5306637;26;20494;-71
2024/04/14 09:55:43;;;;;;;2.17;1.37;;;19.50;1.00;;;;;;5305008;26;21090;-72
2024/04/14 09:58:11;;;;;;;2.20;1.40;;;19.60;1.00;;;;;;5305719;26;21460;-72
2024/04/14 10:00:41;;;;;;;4.30;1.00;;;19.60;1.00;;;;;;5344895;26;21030;-73
2024/04/14 10:03:09;;;;;;;2.70;1.40;;;19.60;1.00;;;;;;5304239;26;20649;-71
2024/04/14 10:05:45;;;;;;;3.47;1.57;;;19.50;1.00;;;;;;5303552;26;20548;-70
2024/04/14 10:08:13;;;;;;;2.43;1.27;;;19.70;1.00;;;;;;5314538;26;21098;-70
2024/04/14 10:10:42;;;;;;;3.33;1.53;;;19.60;1.00;;;;;;5343238;26;20530;-71
2024/04/14 10:13:08;;;;;;;4.00;1.47;;;19.40;1.00;;;;;;5342625;26;20531;-71
2024/04/14 10:15:41;;;;;;;4.30;2.03;;;19.10;1.00;;;;;;5342000;26;20473;-73
2024/04/14 10:18:14;;;;;;;5.13;2.00;;;19.30;1.00;;;;;;5337460;26;20546;-71
2024/04/14 10:20:47;;;;;;;3.27;1.60;;;19.20;1.00;;;;;;5337106;26;20491;-73
2024/04/14 10:23:17;;;;;;;3.80;1.53;;;19.00;1.00;;;;;;5338910;26;20492;-73
2024/04/14 10:25:50;;;;;;;3.67;1.50;;;19.00;1.00;;;;;;5337690;26;20488;-73
2024/04/14 10:28:17;;;;;;;1.83;1.27;;;18.70;1.00;;;;;;5337879;26;20681;-72
2024/04/14 10:30:48;;;;;;;5.60;2.00;;;18.80;1.00;;;;;;5344841;26;20490;-73
2024/04/14 10:33:21;;;;;;;3.63;1.07;;;19.00;1.00;;;;;;5337158;26;21166;-73
2024/04/14 10:36:04;;;;;;;7.30;1.87;;;18.90;1.00;;;;;;5348466;26;20494;-72
2024/04/14 10:38:32;;;;;;;3.10;1.50;;;18.90;1.00;;;;;;5348347;26;20494;-72
2024/04/14 10:41:01;;;;;;;4.63;1.43;;;18.80;1.00;;;;;;5349504;26;20485;-72
2024/04/14 10:43:28;;;;;;;4.17;1.50;;;19.00;1.00;;;;;;5346581;26;20487;-73
2024/04/14 10:46:01;;;;;;;3.70;1.70;;;19.10;1.00;;;;;;5339019;26;20543;-72
2024/04/14 10:48:29;;;;;;;2.57;1.33;;;19.40;1.00;;;;;;5335976;26;20490;-75
2024/04/14 10:51:02;;;;;;;3.53;1.20;;;19.30;1.00;;;;;;5339764;26;21059;-74
2024/04/14 10:53:29;;;;;;;3.23;1.73;;;19.00;1.00;;;;;;5340979;26;21028;-72
2024/04/14 10:55:57;;;;;;;3.10;1.70;;;18.80;1.00;;;;;;5333476;26;20480;-75
2024/04/14 10:58:27;;;;;;;3.37;1.40;;;18.90;1.00;;;;;;5345794;26;20501;-75
2024/04/14 11:00:55;;;;;;;3.30;2.47;;;19.30;1.00;;;;;;5380778;26;20510;-70
2024/04/14 11:03:22;;;;;;;2.27;1.33;;;19.60;1.00;;;;;;5336197;26;21044;-73
2024/04/14 11:05:53;;;;;;;3.00;1.40;;;19.80;1.00;;;;;;5306933;26;21060;-71
2024/04/14 11:08:24;;;;;;;4.60;1.23;;;19.90;1.00;;;;;;5306534;26;20478;-75
2024/04/14 11:10:55;;;;;;;3.77;1.73;;;19.90;1.00;;;;;;5301859;26;20507;-70
2024/04/14 11:13:24;;;;;;;5.43;1.70;;;20.00;1.00;;;;;;5344039;25;20487;-72
2024/04/14 11:15:58;;;;;;;2.70;1.63;;;19.70;1.00;;;;;;5336078;25;20532;-72
2024/04/14 11:18:26;;;;;;;1.80;1.10;;;19.70;1.00;;;;;;5344157;26;20549;-72
2024/04/14 11:20:55;;;;;;;2.00;1.20;;;19.70;1.00;;;;;;5344891;26;21097;-71
2024/04/14 11:23:24;;;;;;;1.60;1.40;;;19.90;1.00;;;;;;5329045;26;20563;-72
2024/04/14 11:25:53;;;;;;;1.93;1.10;;;20.30;1.00;;;;;;5344622;26;22990;-72
2024/04/14 11:28:20;;;;;;;1.90;1.30;;;20.90;1.00;;;;;;5330183;26;20924;-72
2024/04/14 11:30:49;;;;;;;2.20;1.40;;;21.00;1.00;;;;;;5340095;26;20532;-71
2024/04/14 11:33:21;;;;;;;2.57;1.43;;;21.20;1.00;;;;;;5346579;26;20477;-73
2024/04/14 11:35:49;;;;;;;3.03;1.50;;;21.10;1.00;;;;;;5346748;26;20480;-70
2024/04/14 11:38:16;;;;;;;4.00;1.50;;;21.20;1.00;;;;;;5336355;26;24020;-72
2024/04/14 11:40:47;;;;;;;3.47;1.70;;;21.80;1.00;;;;;;5326203;26;20503;-71
2024/04/14 11:43:13;;;;;;;3.30;1.77;;;22.70;1.00;;;;;;5332513;26;20531;-72
2024/04/14 11:45:50;;;;;;;3.30;1.23;;;22.90;1.00;;;;;;5343857;26;20543;-72
2024/04/14 11:48:17;;;;;;;5.20;1.23;;;22.80;1.00;;;;;;5348204;26;21080;-73
2024/04/14 11:50:45;;;;;;;7.63;3.33;;;21.90;1.00;;;;;;5345245;26;20549;-70
2024/04/14 11:53:13;;;;;;;3.60;1.43;;;21.80;1.00;;;;;;5348002;26;21577;-71
2024/04/14 11:55:42;;;;;;;3.17;1.43;;;22.80;1.00;;;;;;5327652;26;20493;-73
2024/04/14 11:58:12;;;;;;;5.77;1.30;;;24.20;1.00;;;;;;5335622;26;20481;-72
2024/04/14 12:00:41;;;;;;;2.77;1.10;;;23.80;1.00;;;;;;5337025;26;20488;-71
2024/04/14 12:03:07;;;;;;;6.70;1.17;;;23.50;1.00;;;;;;5319004;26;20493;-72
2024/04/14 12:05:36;;;;;;;3.00;0.80;;;23.20;1.00;;;;;;5323507;26;20560;-73
2024/04/14 12:08:02;;;;;;;3.43;1.43;;;22.90;1.00;;;;;;5352912;26;20527;-73
2024/04/14 12:10:32;;;;;;;3.50;1.30;;;22.50;1.00;;;;;;5317314;26;20608;-73
2024/04/14 12:12:58;;;;;;;4.63;1.80;;;22.60;1.00;;;;;;5307339;26;20993;-71
2024/04/14 12:15:32;;;;;;;3.97;1.70;;;22.70;1.00;;;;;;5316232;26;20488;-73
2024/04/14 12:17:58;;;;;;;2.90;0.90;;;22.80;1.00;;;;;;5323146;26;20894;-72
2024/04/14 12:20:27;;;;;;;3.10;1.43;;;22.90;1.00;;;;;;5337709;26;20490;-74
2024/04/14 12:22:53;;;;;;;3.00;1.13;;;23.30;1.00;;;;;;5341379;26;20631;-74
2024/04/14 12:25:22;;;;;;;2.37;1.27;;;23.30;1.00;;;;;;5321374;26;20571;-74
2024/04/14 12:27:48;;;;;;;2.60;1.23;;;23.30;1.00;;;;;;5308289;26;20549;-74
2024/04/14 12:30:17;;;;;;;3.70;1.30;;;23.10;1.00;;;;;;5314128;26;20605;-75
2024/04/14 12:32:47;;;;;;;2.80;1.17;;;22.80;1.00;;;;;;5344413;26;20536;-75
2024/04/14 12:35:15;;;;;;;2.53;1.30;;;22.70;1.00;;;;;;5350545;26;21495;-75
2024/04/14 12:37:43;;;;;;;3.90;1.60;;;22.60;1.00;;;;;;5345254;26;20529;-75
2024/04/14 12:40:15;;;;;;;3.67;1.30;;;22.30;1.00;;;;;;5306971;26;20479;-75
2024/04/14 12:42:41;;;;;;;3.37;1.20;;;21.60;1.00;;;;;;5342186;26;21107;-75
2024/04/14 12:45:10;;;;;;;1.00;0.90;;;21.70;1.00;;;;;;5335980;26;20489;-74
2024/04/14 12:47:36;;;;;;;3.10;1.57;;;21.70;1.00;;;;;;5346832;26;20964;-75
2024/04/14 12:50:08;;;;;;;1.33;0.90;;;21.80;1.00;;;;;;5312512;26;20491;-75
2024/04/14 12:52:34;;;;;;;3.40;1.20;;;21.90;1.00;;;;;;5314033;26;20552;-74
2024/04/14 12:55:03;;;;;;;3.70;1.27;;;22.50;1.00;;;;;;5335177;25;20469;-74
2024/04/14 12:57:29;;;;;;;4.87;1.47;;;22.50;1.00;;;;;;5318836;26;21294;-74
2024/04/14 12:59:57;;;;;;;2.10;1.13;;;22.50;1.00;;;;;;5308162;26;20489;-76
2024/04/14 13:02:23;;;;;;;1.50;1.00;;;22.10;1.00;;;;;;5306885;26;20530;-74
2024/04/14 13:04:52;;;;;;;3.03;1.20;;;22.50;1.00;;;;;;5338281;26;21042;-74